createdAt,value
2019-04-27T00:00:44.783Z,48.87
2019-04-27T00:03:35.009Z,48.08
2019-04-27T00:06:07.451Z,47.75
2019-04-27T00:08:38.730Z,49.38
2019-04-27T00:11:08.837Z,48.50
2019-04-27T00:13:40.403Z,43.80
2019-04-27T00:16:13.349Z,47.45
2019-04-27T00:18:49.819Z,47.15
2019-04-27T00:21:32.859Z,43.28
2019-04-27T00:23:59.283Z,45.83
2019-04-27T00:26:25.614Z,47.48
2019-04-27T00:28:53.644Z,46.58
2019-04-27T00:31:20.205Z,42.85
2019-04-27T00:33:47.022Z,40.20
2019-04-27T00:36:21.035Z,37.08
2019-04-27T00:39:05.311Z,44.30
2019-04-27T00:41:31.867Z,46.13
2019-04-27T00:43:58.119Z,45.33
2019-04-27T00:46:24.792Z,45.52
2019-04-27T00:48:51.386Z,44.65
2019-04-27T00:51:17.840Z,43.23
2019-04-27T00:53:44.252Z,41.50
2019-04-27T00:56:27.700Z,45.75
2019-04-27T00:59:13.735Z,42.65
2019-04-27T01:01:57.251Z,43.38
2019-04-27T01:04:25.540Z,43.30
2019-04-27T01:06:51.903Z,38.02
2019-04-27T01:09:18.470Z,39.85
2019-04-27T01:11:44.874Z,43.28
2019-04-27T01:14:12.766Z,46.73
2019-04-27T01:16:39.313Z,47.43
2019-04-27T01:19:05.679Z,45.80
2019-04-27T01:21:32.084Z,47.50
2019-04-27T01:23:58.946Z,48.65
2019-04-27T01:26:45.550Z,46.28
2019-04-27T01:29:13.745Z,48.40
2019-04-27T01:31:40.334Z,51.00
2019-04-27T01:34:06.815Z,50.85
2019-04-27T01:36:33.049Z,51.88
2019-04-27T01:38:59.609Z,51.13
2019-04-27T01:41:25.805Z,46.63
2019-04-27T01:43:52.095Z,50.23
2019-04-27T01:46:19.586Z,51.53
2019-04-27T01:48:49.042Z,54.30
2019-04-27T01:51:15.417Z,56.05
2019-04-27T01:53:41.916Z,57.67
2019-04-27T01:56:09.249Z,59.55
2019-04-27T01:58:39.239Z,57.65
2019-04-27T02:01:18.698Z,59.48
2019-04-27T02:03:48.761Z,57.50
2019-04-27T02:06:15.468Z,59.67
2019-04-27T02:08:41.932Z,61.20
2019-04-27T02:11:09.239Z,61.53
2019-04-27T02:13:36.824Z,61.55
2019-04-27T02:16:03.283Z,58.87
2019-04-27T02:18:37.505Z,58.52
2019-04-27T02:20:59.148Z,57.17
2019-04-27T02:23:25.824Z,56.10
2019-04-27T02:25:52.098Z,58.15
2019-04-27T02:28:29.524Z,56.65
2019-04-27T02:31:16.258Z,54.98
2019-04-27T02:33:47.324Z,57.23
2019-04-27T02:36:15.251Z,56.68
2019-04-27T02:38:41.847Z,53.52
2019-04-27T02:41:10.005Z,53.78
2019-04-27T02:43:49.751Z,49.90
2019-04-27T02:46:15.819Z,51.98
2019-04-27T02:48:56.007Z,50.78
2019-04-27T02:51:21.283Z,53.23
2019-04-27T02:53:54.852Z,51.28
2019-04-27T02:56:23.231Z,53.90
2019-04-27T02:58:49.848Z,50.25
2019-04-27T03:01:16.598Z,54.75
2019-04-27T03:03:42.955Z,53.35
2019-04-27T03:06:09.841Z,55.38
2019-04-27T03:08:36.436Z,56.33
2019-04-27T03:11:02.880Z,54.33
2019-04-27T03:13:31.035Z,56.40
2019-04-27T03:16:17.334Z,53.70
2019-04-27T03:18:46.414Z,57.58
2019-04-27T03:21:20.318Z,60.80
2019-04-27T03:23:50.124Z,58.05
2019-04-27T03:26:24.490Z,56.15
2019-04-27T03:28:53.006Z,52.67
2019-04-27T03:31:21.389Z,55.43
2019-04-27T03:33:54.758Z,51.77
2019-04-27T03:36:16.035Z,54.75
2019-04-27T03:38:42.663Z,54.13
2019-04-27T03:41:09.577Z,52.05
2019-04-27T03:43:36.017Z,52.67
2019-04-27T03:46:02.921Z,53.58
2019-04-27T03:48:29.613Z,52.25
2019-04-27T03:51:13.616Z,52.17
2019-04-27T03:53:49.737Z,52.88
2019-04-27T03:56:21.020Z,49.55
2019-04-27T03:58:51.935Z,50.98
2019-04-27T04:01:20.342Z,47.80
2019-04-27T04:03:46.544Z,51.42
2019-04-27T04:06:13.005Z,51.20
2019-04-27T04:08:39.876Z,51.63
2019-04-27T04:11:19.675Z,51.35
2019-04-27T04:13:49.382Z,50.73
2019-04-27T04:16:32.319Z,50.12
2019-04-27T04:19:06.339Z,43.20
2019-04-27T04:21:33.722Z,46.53
2019-04-27T04:24:01.134Z,40.85
2019-04-27T04:26:31.921Z,39.88
2019-04-27T04:28:56.007Z,41.98
2019-04-27T04:31:22.396Z,43.58
2019-04-27T04:33:49.282Z,42.48
2019-04-27T04:36:15.657Z,44.03
2019-04-27T04:38:44.042Z,41.33
2019-04-27T04:41:30.352Z,44.00
2019-04-27T04:44:01.512Z,42.73
2019-04-27T04:46:29.958Z,45.45
2019-04-27T04:49:00.034Z,40.03
2019-04-27T04:51:26.211Z,44.00
2019-04-27T04:53:52.700Z,44.93
2019-04-27T04:56:18.983Z,44.73
2019-04-27T04:58:45.438Z,45.30
2019-04-27T05:01:11.801Z,39.25
2019-04-27T05:03:38.857Z,43.45
2019-04-27T05:06:05.794Z,41.70
2019-04-27T05:08:32.043Z,40.78
2019-04-27T05:10:59.719Z,41.40
2019-04-27T05:13:26.321Z,36.38
2019-04-27T05:15:52.688Z,38.42
2019-04-27T05:18:19.339Z,18.17
2019-04-27T05:20:48.666Z,23.52
2019-04-27T05:23:15.362Z,25.77
2019-04-27T05:25:41.915Z,31.25
2019-04-27T05:28:09.764Z,29.75
2019-04-27T05:30:36.255Z,30.27
2019-04-27T05:33:02.659Z,42.67
2019-04-27T05:35:29.780Z,42.10
2019-04-27T05:37:56.148Z,42.43
2019-04-27T05:40:22.584Z,38.80
2019-04-27T05:42:55.112Z,40.45
2019-04-27T05:45:39.562Z,43.73
2019-04-27T05:48:09.405Z,42.10
2019-04-27T05:50:43.060Z,37.10
2019-04-27T05:53:04.472Z,39.67
2019-04-27T05:55:30.754Z,37.78
2019-04-27T05:57:59.019Z,35.88
2019-04-27T06:00:25.871Z,40.25
2019-04-27T06:02:52.213Z,41.10
2019-04-27T06:05:19.040Z,41.15
2019-04-27T06:07:45.289Z,37.90
2019-04-27T06:10:11.891Z,36.98
2019-04-27T06:12:39.600Z,41.23
2019-04-27T06:15:06.546Z,42.70
2019-04-27T06:17:33.266Z,42.45
2019-04-27T06:19:59.808Z,41.83
2019-04-27T06:22:26.143Z,41.70
2019-04-27T06:24:54.535Z,41.37
2019-04-27T06:27:21.103Z,38.00
2019-04-27T06:29:49.089Z,38.35
2019-04-27T06:32:15.617Z,41.80
2019-04-27T06:34:41.996Z,42.48
2019-04-27T06:37:09.548Z,40.08
2019-04-27T06:39:35.977Z,41.35
2019-04-27T06:42:15.623Z,41.35
2019-04-27T06:44:30.424Z,35.20
2019-04-27T06:46:56.881Z,40.05
2019-04-27T06:49:23.156Z,36.23
2019-04-27T06:51:49.884Z,38.17
2019-04-27T06:54:16.559Z,38.10
2019-04-27T06:56:42.945Z,37.33
2019-04-27T06:59:09.534Z,34.20
2019-04-27T07:01:36.013Z,34.70
2019-04-27T07:04:02.501Z,35.92
2019-04-27T07:06:28.881Z,33.50
2019-04-27T07:08:55.406Z,32.88
2019-04-27T07:11:21.876Z,28.55
2019-04-27T07:13:49.687Z,28.42
2019-04-27T07:16:16.228Z,26.70
2019-04-27T07:18:42.904Z,23.92
2019-04-27T07:21:16.949Z,20.25
2019-04-27T07:23:39.556Z,23.47
2019-04-27T07:26:05.824Z,24.57
2019-04-27T07:28:32.356Z,23.42
2019-04-27T07:30:58.958Z,22.87
2019-04-27T07:33:25.403Z,23.55
2019-04-27T07:35:51.688Z,23.02
2019-04-27T07:38:19.208Z,23.85
2019-04-27T07:40:45.638Z,24.23
2019-04-27T07:43:14.219Z,21.80
2019-04-27T07:45:41.786Z,23.57
2019-04-27T07:48:09.167Z,22.50
2019-04-27T07:50:35.995Z,21.23
2019-04-27T07:53:02.657Z,21.02
2019-04-27T07:55:29.057Z,19.98
2019-04-27T07:57:55.706Z,20.62
2019-04-27T08:00:22.965Z,21.15
2019-04-27T08:02:49.364Z,20.23
2019-04-27T08:05:15.901Z,20.52
2019-04-27T08:07:42.364Z,20.62
2019-04-27T08:10:09.707Z,20.45
2019-04-27T08:12:36.429Z,20.00
2019-04-27T08:15:04.483Z,19.15
2019-04-27T08:17:34.203Z,20.30
2019-04-27T08:20:03.438Z,20.23
2019-04-27T08:22:30.455Z,19.07
2019-04-27T08:24:57.013Z,18.80
2019-04-27T08:27:25.839Z,18.50
2019-04-27T08:29:58.343Z,18.07
2019-04-27T08:32:29.807Z,16.73
2019-04-27T08:34:56.251Z,16.73
2019-04-27T08:37:23.039Z,16.90
2019-04-27T08:39:51.116Z,17.02
2019-04-27T08:42:19.378Z,15.00
2019-04-27T08:44:46.077Z,15.40
2019-04-27T08:47:12.945Z,14.20
2019-04-27T08:49:39.596Z,13.90
2019-04-27T08:52:06.225Z,12.50
2019-04-27T08:54:32.936Z,13.32
2019-04-27T08:57:01.680Z,11.30
2019-04-27T08:59:29.560Z,10.82
2019-04-27T09:01:56.038Z,10.63
2019-04-27T09:04:22.371Z,10.53
2019-04-27T09:06:50.654Z,10.95
2019-04-27T09:09:34.208Z,9.20
2019-04-27T09:12:19.708Z,8.65
2019-04-27T09:14:49.474Z,8.00
2019-04-27T09:17:20.693Z,7.87
2019-04-27T09:19:51.850Z,5.20
2019-04-27T09:22:19.307Z,5.20
2019-04-27T09:24:46.828Z,7.20
2019-04-27T09:27:17.332Z,6.50
2019-04-27T09:29:44.048Z,5.37
2019-04-27T09:32:10.739Z,5.97
2019-04-27T09:34:37.127Z,5.87
2019-04-27T09:37:03.891Z,5.53
2019-04-27T09:39:30.554Z,4.95
2019-04-27T09:41:57.240Z,4.33
2019-04-27T09:44:23.800Z,4.05
2019-04-27T09:46:50.447Z,3.65
2019-04-27T09:49:17.034Z,3.35
2019-04-27T09:51:43.288Z,3.50
2019-04-27T09:54:09.740Z,3.22
2019-04-27T09:56:36.416Z,3.00
2019-04-27T09:59:03.113Z,2.85
2019-04-27T10:01:29.434Z,2.90
2019-04-27T10:03:56.683Z,3.17
2019-04-27T10:06:23.328Z,2.90
2019-04-27T10:08:49.804Z,2.62
2019-04-27T10:11:17.083Z,2.65
2019-04-27T10:13:43.703Z,2.12
2019-04-27T10:16:10.173Z,2.65
2019-04-27T10:18:36.843Z,2.45
2019-04-27T10:21:03.474Z,2.50
2019-04-27T10:23:29.776Z,2.50
2019-04-27T10:25:56.466Z,2.47
2019-04-27T10:28:22.734Z,2.10
2019-04-27T10:30:49.063Z,2.37
2019-04-27T10:33:16.149Z,2.60
2019-04-27T10:35:42.630Z,2.10
2019-04-27T10:38:08.937Z,2.02
2019-04-27T10:40:35.223Z,1.87
2019-04-27T10:43:01.479Z,1.70
2019-04-27T10:45:27.839Z,1.85
2019-04-27T10:47:56.155Z,1.60
2019-04-27T10:50:23.397Z,1.80
2019-04-27T10:52:53.809Z,1.80
2019-04-27T10:55:17.945Z,2.00
2019-04-27T10:57:45.161Z,1.90
2019-04-27T11:00:13.964Z,1.65
2019-04-27T11:02:40.358Z,2.40
2019-04-27T11:05:09.613Z,1.90
2019-04-27T11:07:37.686Z,1.70
2019-04-27T11:10:07.704Z,1.55
2019-04-27T11:12:34.430Z,2.05
2019-04-27T11:15:01.145Z,2.12
2019-04-27T11:17:27.569Z,1.95
2019-04-27T11:19:53.984Z,1.80
2019-04-27T11:22:20.357Z,1.47
2019-04-27T11:24:47.945Z,1.72
2019-04-27T11:27:14.423Z,1.62
2019-04-27T11:29:41.052Z,1.60
2019-04-27T11:32:07.892Z,1.77
2019-04-27T11:34:53.166Z,1.55
2019-04-27T11:37:21.407Z,1.47
2019-04-27T11:39:52.018Z,1.40
2019-04-27T11:42:18.500Z,1.70
2019-04-27T11:44:44.904Z,1.25
2019-04-27T11:47:11.624Z,1.55
2019-04-27T11:49:38.018Z,1.57
2019-04-27T11:52:05.821Z,1.65
2019-04-27T11:54:32.333Z,1.30
2019-04-27T11:56:59.199Z,1.55
2019-04-27T11:59:28.681Z,1.70
2019-04-27T12:01:55.929Z,1.50
2019-04-27T12:04:23.610Z,1.80
2019-04-27T12:06:50.416Z,1.52
2019-04-27T12:09:16.704Z,1.35
2019-04-27T12:11:43.092Z,1.20
2019-04-27T12:14:09.459Z,1.37
2019-04-27T12:16:36.258Z,1.40
2019-04-27T12:19:02.982Z,1.20
2019-04-27T12:21:29.259Z,1.17
2019-04-27T12:23:55.690Z,1.20
2019-04-27T12:26:26.945Z,1.20
2019-04-27T12:28:53.524Z,1.25
2019-04-27T12:31:21.780Z,1.20
2019-04-27T12:33:48.110Z,1.40
2019-04-27T12:36:17.569Z,1.20
2019-04-27T12:38:43.829Z,1.00
2019-04-27T12:41:10.277Z,0.88
2019-04-27T12:43:37.487Z,1.10
2019-04-27T12:46:05.812Z,0.93
2019-04-27T12:48:32.391Z,0.80
2019-04-27T12:50:58.879Z,1.00
2019-04-27T12:53:30.054Z,0.90
2019-04-27T12:56:00.988Z,1.20
2019-04-27T12:58:29.368Z,1.10
2019-04-27T13:01:00.420Z,1.10
2019-04-27T13:03:26.868Z,1.07
2019-04-27T13:05:53.211Z,0.90
2019-04-27T13:08:21.002Z,0.80
2019-04-27T13:10:47.469Z,0.80
2019-04-27T13:13:13.783Z,0.90
2019-04-27T13:15:40.397Z,0.90
2019-04-27T13:18:06.845Z,0.93
2019-04-27T13:20:33.596Z,1.55
2019-04-27T13:23:01.838Z,0.60
2019-04-27T13:25:28.370Z,1.10
2019-04-27T13:27:56.246Z,3.83
2019-04-27T13:30:23.598Z,6.75
2019-04-27T13:32:49.993Z,7.97
2019-04-27T13:35:16.334Z,7.92
2019-04-27T13:37:46.684Z,7.08
2019-04-27T13:40:17.042Z,7.50
2019-04-27T13:42:45.751Z,6.55
2019-04-27T13:45:21.076Z,5.53
2019-04-27T13:47:49.423Z,5.12
2019-04-27T13:50:17.711Z,5.30
2019-04-27T13:52:44.125Z,5.35
2019-04-27T13:55:10.663Z,4.53
2019-04-27T13:57:49.456Z,5.45
2019-04-27T14:00:06.930Z,4.30
2019-04-27T14:02:34.843Z,3.83
2019-04-27T14:05:01.625Z,3.75
2019-04-27T14:07:28.055Z,6.03
2019-04-27T14:09:54.564Z,3.10
2019-04-27T14:12:21.781Z,3.92
2019-04-27T14:14:48.977Z,4.10
2019-04-27T14:17:15.681Z,2.50
2019-04-27T14:19:42.270Z,3.75
2019-04-27T14:22:09.217Z,3.50
2019-04-27T14:24:39.745Z,3.67
2019-04-27T14:27:06.755Z,3.47
2019-04-27T14:29:33.568Z,5.50
2019-04-27T14:32:00.340Z,4.10
2019-04-27T14:34:28.359Z,4.05
2019-04-27T14:36:54.986Z,4.20
2019-04-27T14:39:21.791Z,4.22
2019-04-27T14:41:49.106Z,4.25
2019-04-27T14:44:15.540Z,3.90
2019-04-27T14:46:44.845Z,4.00
2019-04-27T14:49:11.383Z,4.03
2019-04-27T14:51:40.163Z,4.15
2019-04-27T14:54:09.109Z,3.20
2019-04-27T14:56:38.690Z,4.60
2019-04-27T14:59:07.296Z,5.00
2019-04-27T15:01:33.817Z,4.55
2019-04-27T15:04:00.063Z,6.20
2019-04-27T15:06:26.463Z,6.45
2019-04-27T15:08:52.889Z,7.45
2019-04-27T15:11:19.475Z,7.37
2019-04-27T15:13:48.713Z,6.03
2019-04-27T15:16:14.496Z,7.12
2019-04-27T15:18:46.239Z,7.90
2019-04-27T15:21:16.087Z,7.42
2019-04-27T15:23:48.323Z,7.42
2019-04-27T15:26:21.857Z,7.70
2019-04-27T15:28:49.550Z,6.78
2019-04-27T15:31:27.116Z,7.35
2019-04-27T15:34:02.218Z,6.37
2019-04-27T15:36:36.381Z,6.45
2019-04-27T15:39:22.547Z,5.90
2019-04-27T15:41:52.874Z,5.65
2019-04-27T15:44:19.148Z,5.97
2019-04-27T15:46:45.682Z,5.40
2019-04-27T15:49:12.025Z,5.03
2019-04-27T15:51:38.614Z,5.87
2019-04-27T15:54:05.324Z,5.17
2019-04-27T15:56:35.333Z,5.83
2019-04-27T15:59:01.033Z,5.65
2019-04-27T16:01:29.674Z,5.20
2019-04-27T16:03:55.602Z,5.33
2019-04-27T16:06:22.062Z,6.05
2019-04-27T16:08:49.157Z,6.40
2019-04-27T16:11:19.041Z,6.10
2019-04-27T16:13:44.356Z,6.15
2019-04-27T16:16:10.766Z,6.10
2019-04-27T16:18:38.796Z,6.72
2019-04-27T16:21:07.134Z,6.47
2019-04-27T16:23:40.075Z,5.22
2019-04-27T16:26:11.314Z,5.30
2019-04-27T16:28:33.931Z,6.65
2019-04-27T16:31:00.577Z,5.58
2019-04-27T16:33:28.782Z,7.10
2019-04-27T16:36:00.300Z,7.45
2019-04-27T16:38:26.717Z,5.83
2019-04-27T16:40:54.636Z,7.72
2019-04-27T16:43:23.865Z,6.92
2019-04-27T16:45:50.146Z,8.13
2019-04-27T16:48:18.446Z,8.18
2019-04-27T16:50:44.607Z,8.08
2019-04-27T16:53:12.620Z,8.18
2019-04-27T16:55:39.178Z,8.30
2019-04-27T16:58:11.097Z,8.50
2019-04-27T17:00:33.997Z,8.73
2019-04-27T17:03:02.832Z,9.50
2019-04-27T17:05:34.475Z,8.38
2019-04-27T17:07:57.033Z,8.05
2019-04-27T17:10:26.475Z,8.05
2019-04-27T17:12:51.765Z,6.85
2019-04-27T17:15:36.759Z,6.47
2019-04-27T17:18:24.401Z,4.83
2019-04-27T17:20:52.634Z,4.80
2019-04-27T17:23:27.267Z,4.87
2019-04-27T17:26:05.938Z,4.85
2019-04-27T17:28:29.008Z,5.08
2019-04-27T17:30:55.879Z,5.10
2019-04-27T17:33:39.237Z,4.83
2019-04-27T17:36:05.821Z,4.47
2019-04-27T17:38:32.319Z,5.45
2019-04-27T17:40:58.798Z,5.95
2019-04-27T17:43:25.249Z,6.62
2019-04-27T17:45:51.794Z,6.08
2019-04-27T17:48:18.476Z,6.05
2019-04-27T17:50:44.996Z,6.80
2019-04-27T17:53:12.119Z,7.45
2019-04-27T17:55:38.391Z,6.95
2019-04-27T17:58:05.388Z,7.87
2019-04-27T18:00:40.967Z,7.10
2019-04-27T18:03:01.228Z,9.05
2019-04-27T18:05:28.506Z,10.55
2019-04-27T18:07:55.130Z,10.35
2019-04-27T18:10:24.302Z,11.78
2019-04-27T18:12:50.137Z,10.93
2019-04-27T18:15:16.695Z,10.32
2019-04-27T18:17:49.939Z,7.95
2019-04-27T18:20:18.404Z,7.12
2019-04-27T18:22:49.687Z,5.92
2019-04-27T18:25:16.317Z,5.47
2019-04-27T18:27:50.279Z,6.28
2019-04-27T18:30:38.732Z,5.67
2019-04-27T18:33:05.444Z,4.55
2019-04-27T18:35:31.796Z,5.30
2019-04-27T18:38:01.656Z,7.47
2019-04-27T18:40:32.083Z,4.58
2019-04-27T18:42:54.501Z,5.15
2019-04-27T18:45:22.052Z,5.37
2019-04-27T18:47:51.295Z,5.62
2019-04-27T18:50:25.467Z,5.60
2019-04-27T18:52:53.770Z,4.90
2019-04-27T18:55:20.980Z,5.00
2019-04-27T18:57:51.027Z,4.55
2019-04-27T19:00:20.123Z,4.47
2019-04-27T19:02:50.356Z,3.67
2019-04-27T19:05:18.721Z,3.50
2019-04-27T19:07:45.087Z,4.03
2019-04-27T19:10:11.639Z,3.35
2019-04-27T19:12:40.448Z,4.05
2019-04-27T19:15:08.327Z,3.87
2019-04-27T19:17:38.498Z,4.25
2019-04-27T19:20:09.892Z,4.28
2019-04-27T19:22:35.885Z,4.03
2019-04-27T19:25:03.349Z,3.77
2019-04-27T19:27:39.451Z,3.83
2019-04-27T19:30:14.595Z,4.28
2019-04-27T19:32:41.074Z,3.98
2019-04-27T19:35:07.526Z,4.00
2019-04-27T19:37:34.290Z,3.72
2019-04-27T19:40:00.794Z,4.87
2019-04-27T19:42:28.578Z,7.75
2019-04-27T19:44:55.097Z,3.65
2019-04-27T19:47:22.210Z,3.50
2019-04-27T19:49:48.501Z,3.50
2019-04-27T19:52:14.997Z,3.45
2019-04-27T19:54:41.296Z,3.60
2019-04-27T19:57:09.136Z,3.55
2019-04-27T19:59:38.060Z,3.40
2019-04-27T20:02:06.508Z,3.37
2019-04-27T20:04:34.636Z,3.22
2019-04-27T20:07:01.148Z,3.40
2019-04-27T20:09:32.287Z,3.42
2019-04-27T20:12:00.662Z,4.15
2019-04-27T20:14:27.017Z,4.30
2019-04-27T20:16:53.527Z,5.30
2019-04-27T20:19:21.567Z,4.33
2019-04-27T20:21:48.055Z,4.65
2019-04-27T20:24:14.332Z,4.65
2019-04-27T20:26:40.521Z,4.97
2019-04-27T20:29:07.012Z,4.25
2019-04-27T20:31:33.428Z,4.87
2019-04-27T20:33:59.698Z,4.42
2019-04-27T20:36:27.175Z,4.20
2019-04-27T20:38:53.583Z,4.30
2019-04-27T20:41:21.718Z,3.92
2019-04-27T20:43:47.970Z,4.30
2019-04-27T20:46:14.487Z,4.70
2019-04-27T20:48:41.390Z,4.53
2019-04-27T20:51:07.956Z,5.08
2019-04-27T20:53:51.798Z,4.90
2019-04-27T20:56:20.285Z,5.17
2019-04-27T20:58:46.812Z,4.95
2019-04-27T21:01:13.094Z,5.05
2019-04-27T21:03:51.170Z,4.10
2019-04-27T21:06:28.691Z,4.90
2019-04-27T21:08:55.054Z,4.83
2019-04-27T21:11:21.568Z,4.40
2019-04-27T21:13:47.939Z,5.03
2019-04-27T21:16:14.238Z,4.10
2019-04-27T21:18:41.967Z,4.60
2019-04-27T21:21:08.498Z,3.92
2019-04-27T21:23:34.866Z,3.60
2019-04-27T21:26:02.075Z,4.25
2019-04-27T21:28:28.644Z,4.08
2019-04-27T21:30:55.002Z,3.95
2019-04-27T21:33:21.633Z,3.85
2019-04-27T21:35:51.267Z,4.70
2019-04-27T21:38:17.880Z,4.67
2019-04-27T21:40:44.831Z,5.47
2019-04-27T21:43:11.453Z,4.97
2019-04-27T21:45:37.811Z,4.62
2019-04-27T21:48:04.090Z,4.92
2019-04-27T21:50:31.427Z,5.10
2019-04-27T21:53:15.671Z,5.03
2019-04-27T21:55:42.472Z,4.80
2019-04-27T21:58:08.728Z,4.87
2019-04-27T22:00:38.013Z,4.60
2019-04-27T22:03:04.696Z,4.47
2019-04-27T22:05:31.495Z,4.75
2019-04-27T22:07:58.019Z,5.10
2019-04-27T22:10:24.402Z,4.53
2019-04-27T22:12:51.817Z,4.80
2019-04-27T22:15:18.341Z,4.25
2019-04-27T22:17:44.781Z,4.60
2019-04-27T22:20:11.852Z,4.60
2019-04-27T22:22:41.412Z,4.62
2019-04-27T22:25:11.602Z,4.12
2019-04-27T22:27:38.193Z,3.80
2019-04-27T22:30:05.647Z,4.60
2019-04-27T22:32:32.798Z,4.53
2019-04-27T22:34:59.314Z,4.37
2019-04-27T22:37:25.698Z,3.75
2019-04-27T22:39:56.642Z,4.12
2019-04-27T22:42:41.591Z,4.30
2019-04-27T22:45:10.260Z,4.35
2019-04-27T22:47:36.526Z,4.60
2019-04-27T22:50:05.090Z,4.53
2019-04-27T22:52:31.332Z,4.40
2019-04-27T22:54:58.059Z,4.55
2019-04-27T22:57:26.504Z,4.80
2019-04-27T23:00:03.913Z,4.20
2019-04-27T23:02:35.097Z,5.00
2019-04-27T23:05:02.469Z,5.17
2019-04-27T23:07:31.554Z,5.83
2019-04-27T23:09:58.141Z,6.40
2019-04-27T23:12:24.575Z,5.60
2019-04-27T23:14:50.848Z,5.75
2019-04-27T23:17:19.214Z,6.40
2019-04-27T23:19:45.745Z,6.60
2019-04-27T23:22:12.120Z,7.50
2019-04-27T23:24:38.481Z,7.80
2019-04-27T23:27:04.935Z,7.15
2019-04-27T23:29:33.184Z,7.00
2019-04-27T23:32:01.664Z,7.95
2019-04-27T23:34:28.009Z,7.85
2019-04-27T23:36:54.270Z,7.65
2019-04-27T23:39:20.721Z,7.78
2019-04-27T23:41:47.080Z,8.50
2019-04-27T23:44:13.480Z,8.48
2019-04-27T23:46:39.797Z,9.10
2019-04-27T23:49:06.192Z,8.98
2019-04-27T23:51:46.286Z,9.03
2019-04-27T23:54:13.831Z,9.00
2019-04-27T23:56:41.919Z,10.25
2019-04-27T23:59:08.310Z,10.25
